Time;durP1;ratioP1;P1;durP2;ratioP2;P2;SDS_P1;SDS_P2;PMS_P1;PMS_P2;Temp;Humidity;BMP_temperature;BMP_pressure;BME280_temperature;BME280_humidity;BME280_pressure;Samples;Min_cycle;Max_cycle;Signal;HPM_P1;HPM_P2
2021/03/26 00:02:39;;;;;;;;;56.25;46.50;;;;;;;;12059287;29;8884;-50
2021/03/26 00:08:42;;;;;;;;;61.00;45.50;;;;;;;;12058336;29;8919;-49
2021/03/26 00:14:44;;;;;;;;;49.75;45.75;;;;;;;;12058064;29;8885;-51
2021/03/26 00:20:45;;;;;;;;;55.50;47.25;;;;;;;;12058372;29;8862;-52
2021/03/26 00:26:46;;;;;;;;;49.00;43.50;;;;;;;;12057055;29;8877;-52
2021/03/26 00:32:53;;;;;;;;;52.00;45.75;;;;;;;;12056293;29;8893;-52
2021/03/26 00:38:54;;;;;;;;;50.00;44.00;;;;;;;;12057260;29;8893;-50
2021/03/26 00:44:56;;;;;;;;;49.75;45.25;;;;;;;;12056818;29;8971;-50
2021/03/26 00:51:00;;;;;;;;;40.25;39.25;;;;;;;;12057081;29;8869;-52
2021/03/26 00:57:02;;;;;;;;;43.00;40.00;;;;;;;;12056352;29;9646;-52
2021/03/26 01:03:22;;;;;;;;;44.75;41.00;;;;;;;;12054709;29;8881;-52
2021/03/26 01:09:24;;;;;;;;;24.00;20.50;;;;;;;;12055743;29;9635;-53
2021/03/26 01:15:27;;;;;;;;;42.25;41.75;;;;;;;;12056284;29;9682;-53
2021/03/26 01:21:32;;;;;;;;;46.00;39.00;;;;;;;;12055735;29;8881;-53
2021/03/26 01:27:35;;;;;;;;;48.75;41.00;;;;;;;;12053881;29;9063;-50
2021/03/26 01:33:45;;;;;;;;;41.00;40.00;;;;;;;;12053516;29;8897;-53
2021/03/26 01:39:47;;;;;;;;;55.75;46.75;;;;;;;;12052944;29;8877;-51
2021/03/26 01:45:53;;;;;;;;;50.00;42.50;;;;;;;;12054854;29;8880;-54
2021/03/26 01:51:57;;;;;;;;;49.75;43.25;;;;;;;;12052392;29;8861;-51
2021/03/26 01:57:59;;;;;;;;;46.25;41.75;;;;;;;;12052871;29;8885;-52
2021/03/26 02:04:35;;;;;;;;;44.00;39.25;;;;;;;;12052470;29;8893;-53
2021/03/26 02:11:18;;;;;;;;;55.50;46.00;;;;;;;;12007179;29;8879;-53
2021/03/26 02:17:24;;;;;;;;;55.25;45.75;;;;;;;;12006688;29;8886;-52
2021/03/26 02:23:40;;;;;;;;;52.75;48.50;;;;;;;;12023266;29;8957;-54
2021/03/26 02:29:44;;;;;;;;;50.50;46.50;;;;;;;;12051397;29;8912;-53
2021/03/26 02:36:17;;;;;;;;;55.50;47.50;;;;;;;;12051016;29;8885;-49
2021/03/26 02:42:39;;;;;;;;;50.50;43.75;;;;;;;;12051017;29;8873;-53
2021/03/26 02:48:57;;;;;;;;;61.25;47.50;;;;;;;;12052261;29;9004;-53
2021/03/26 02:55:22;;;;;;;;;60.50;47.00;;;;;;;;12051568;29;8861;-53
2021/03/26 03:01:32;;;;;;;;;55.33;47.67;;;;;;;;12051647;29;8873;-51
2021/03/26 03:07:41;;;;;;;;;55.00;47.50;;;;;;;;12050074;29;9424;-50
2021/03/26 03:14:18;;;;;;;;;55.33;49.33;;;;;;;;12050408;29;8881;-50
2021/03/26 03:20:36;;;;;;;;;59.00;49.67;;;;;;;;12050169;29;8869;-52
2021/03/26 03:27:17;;;;;;;;;58.00;49.33;;;;;;;;12050139;29;8917;-51
2021/03/26 03:33:28;;;;;;;;;62.50;51.50;;;;;;;;12048184;29;8865;-51
2021/03/26 03:39:51;;;;;;;;;59.33;50.00;;;;;;;;12052034;29;8872;-49
2021/03/26 03:46:03;;;;;;;;;62.33;48.33;;;;;;;;12051781;29;8889;-48
2021/03/26 03:52:54;;;;;;;;;63.67;52.00;;;;;;;;12050330;29;8976;-48
2021/03/26 03:59:05;;;;;;;;;67.33;54.67;;;;;;;;12049495;29;8991;-50
2021/03/26 04:05:20;;;;;;;;;70.00;54.33;;;;;;;;12464277;24;8880;-47
2021/03/26 04:11:40;;;;;;;;;68.33;56.67;;;;;;;;12028782;29;8868;-53
2021/03/26 04:18:07;;;;;;;;;67.67;53.33;;;;;;;;12027458;29;8986;-50
2021/03/26 04:24:45;;;;;;;;;69.00;54.33;;;;;;;;12015063;29;8879;-52
2021/03/26 04:30:57;;;;;;;;;73.00;53.00;;;;;;;;12012697;29;8875;-50
2021/03/26 04:37:35;;;;;;;;;74.33;58.33;;;;;;;;11998959;29;8880;-50
2021/03/26 04:43:54;;;;;;;;;76.00;61.00;;;;;;;;12039611;29;8885;-53
2021/03/26 04:50:14;;;;;;;;;71.67;60.00;;;;;;;;12056693;29;8960;-49
2021/03/26 04:56:22;;;;;;;;;71.00;56.33;;;;;;;;12055137;29;8892;-51
2021/03/26 05:02:52;;;;;;;;;73.33;60.00;;;;;;;;12043346;29;9037;-48
2021/03/26 05:09:00;;;;;;;;;74.33;59.00;;;;;;;;12045055;29;9002;-49
2021/03/26 05:15:13;;;;;;;;;79.00;64.67;;;;;;;;12018766;29;8868;-50
2021/03/26 05:21:33;;;;;;;;;77.33;60.67;;;;;;;;12026896;29;9658;-52
2021/03/26 05:28:06;;;;;;;;;77.67;62.33;;;;;;;;12009111;29;9008;-50
2021/03/26 05:34:18;;;;;;;;;81.33;63.00;;;;;;;;12022764;29;8889;-51
2021/03/26 05:40:42;;;;;;;;;75.00;61.25;;;;;;;;12032557;29;8875;-50
2021/03/26 05:47:24;;;;;;;;;69.75;58.25;;;;;;;;12024473;29;9035;-52
2021/03/26 05:54:09;;;;;;;;;75.25;59.00;;;;;;;;12052541;29;8927;-54
2021/03/26 06:00:42;;;;;;;;;80.33;66.00;;;;;;;;12054974;29;8948;-54
2021/03/26 06:07:29;;;;;;;;;85.00;67.67;;;;;;;;12053076;29;9019;-50
2021/03/26 06:14:11;;;;;;;;;80.67;65.67;;;;;;;;12045372;29;8875;-49
2021/03/26 06:20:49;;;;;;;;;86.33;65.67;;;;;;;;12008921;29;8888;-53
2021/03/26 06:28:00;;;;;;;;;81.33;67.00;;;;;;;;12007835;29;8892;-54
2021/03/26 06:34:14;;;;;;;;;84.00;66.33;;;;;;;;11942158;29;8883;-51
2021/03/26 06:40:42;;;;;;;;;82.33;63.00;;;;;;;;12050893;29;9004;-52
2021/03/26 06:47:22;;;;;;;;;67.75;55.50;;;;;;;;12054308;29;9861;-52
2021/03/26 06:53:59;;;;;;;;;67.00;56.25;;;;;;;;12047188;29;8904;-54
2021/03/26 07:00:24;;;;;;;;;66.50;54.25;;;;;;;;12028185;29;8912;-54
2021/03/26 07:07:06;;;;;;;;;64.00;53.50;;;;;;;;12051968;29;8920;-53
2021/03/26 07:13:23;;;;;;;;;53.75;47.25;;;;;;;;12051964;29;8862;-55
2021/03/26 07:19:52;;;;;;;;;50.00;43.50;;;;;;;;12007845;29;8896;-55
2021/03/26 07:26:31;;;;;;;;;43.25;37.75;;;;;;;;12028223;29;8877;-54
2021/03/26 07:32:45;;;;;;;;;77.75;61.25;;;;;;;;12040606;29;8892;-53
2021/03/26 07:39:02;;;;;;;;;74.25;59.00;;;;;;;;12030191;29;8905;-52
2021/03/26 07:45:15;;;;;;;;;69.25;57.00;;;;;;;;12026283;29;8943;-53
2021/03/26 07:51:32;;;;;;;;;78.25;63.00;;;;;;;;12016232;29;8859;-50
2021/03/26 07:58:12;;;;;;;;;72.25;59.00;;;;;;;;12055114;29;8896;-51
2021/03/26 08:04:49;;;;;;;;;33.25;33.25;;;;;;;;12024416;29;8888;-53
2021/03/26 08:11:05;;;;;;;;;30.00;23.25;;;;;;;;12015637;29;8886;-53
2021/03/26 08:17:21;;;;;;;;;43.25;38.00;;;;;;;;12042295;29;8877;-50
2021/03/26 08:23:58;;;;;;;;;50.75;42.75;;;;;;;;12038398;29;8865;-52
2021/03/26 08:30:21;;;;;;;;;54.75;45.00;;;;;;;;12042479;29;9603;-55
2021/03/26 08:36:32;;;;;;;;;33.00;33.00;;;;;;;;12031060;29;8872;-53
2021/03/26 08:42:34;;;;;;;;;34.00;32.25;;;;;;;;12025516;29;8865;-55
2021/03/26 08:49:01;;;;;;;;;31.00;29.00;;;;;;;;12032598;29;8896;-52
2021/03/26 08:55:13;;;;;;;;;25.50;21.25;;;;;;;;12028242;29;8885;-50
2021/03/26 09:01:30;;;;;;;;;24.25;22.00;;;;;;;;12042929;29;9685;-53
2021/03/26 09:07:56;;;;;;;;;25.00;24.50;;;;;;;;12027940;29;8874;-55
2021/03/26 09:14:35;;;;;;;;;22.75;20.75;;;;;;;;12044562;29;9004;-50
2021/03/26 09:21:09;;;;;;;;;34.25;29.00;;;;;;;;12016493;29;8914;-51
2021/03/26 09:27:16;;;;;;;;;29.00;26.75;;;;;;;;12039785;29;8873;-53
2021/03/26 09:33:18;;;;;;;;;35.50;34.25;;;;;;;;12036973;29;9010;-53
2021/03/26 09:39:21;;;;;;;;;27.25;26.00;;;;;;;;12033299;29;8900;-52
2021/03/26 09:45:31;;;;;;;;;28.75;25.50;;;;;;;;12042711;29;8889;-50
2021/03/26 09:52:00;;;;;;;;;33.00;31.00;;;;;;;;12028580;29;8875;-52
2021/03/26 09:58:11;;;;;;;;;25.00;21.75;;;;;;;;12028656;29;8869;-52
2021/03/26 10:04:20;;;;;;;;;31.25;29.75;;;;;;;;12025884;29;9630;-55
2021/03/26 10:16:50;;;;;;;;;33.50;33.50;;;;;;;;12024910;29;9051;-52
2021/03/26 10:23:10;;;;;;;;;25.25;23.00;;;;;;;;12009004;29;8852;-55
2021/03/26 10:29:40;;;;;;;;;28.75;27.50;;;;;;;;12019805;29;9050;-55
2021/03/26 10:36:31;;;;;;;;;24.75;21.00;;;;;;;;12023476;29;8910;-51
2021/03/26 10:42:56;;;;;;;;;25.25;21.50;;;;;;;;12020466;29;8864;-53
2021/03/26 10:49:10;;;;;;;;;21.00;20.00;;;;;;;;12029939;29;8912;-53
2021/03/26 10:55:22;;;;;;;;;28.25;25.50;;;;;;;;12028810;29;9309;-56
2021/03/26 11:01:27;;;;;;;;;27.50;24.00;;;;;;;;12025690;29;8902;-53
2021/03/26 11:07:36;;;;;;;;;26.25;25.50;;;;;;;;12029048;29;8892;-55
2021/03/26 11:13:56;;;;;;;;;21.75;20.25;;;;;;;;12038620;29;8936;-53
2021/03/26 11:20:33;;;;;;;;;41.75;39.00;;;;;;;;12050106;29;8927;-54
2021/03/26 11:27:01;;;;;;;;;22.75;22.75;;;;;;;;12015968;29;9615;-56
2021/03/26 11:33:24;;;;;;;;;31.50;29.00;;;;;;;;12037940;29;8895;-54
2021/03/26 11:39:33;;;;;;;;;28.00;27.50;;;;;;;;12019765;29;8899;-51
2021/03/26 11:45:56;;;;;;;;;32.00;31.25;;;;;;;;12052976;29;8892;-54
2021/03/26 11:52:19;;;;;;;;;28.25;22.75;;;;;;;;12039662;29;8929;-54
2021/03/26 11:58:31;;;;;;;;;26.75;24.50;;;;;;;;12058032;29;8877;-53
2021/03/26 12:04:46;;;;;;;;;30.25;27.00;;;;;;;;12029993;29;8892;-52
2021/03/26 12:11:13;;;;;;;;;27.25;23.50;;;;;;;;12045479;29;8923;-53
2021/03/26 12:17:21;;;;;;;;;25.75;24.75;;;;;;;;12031083;29;8970;-54
2021/03/26 12:23:35;;;;;;;;;28.00;27.00;;;;;;;;12038586;29;8860;-54
2021/03/26 12:29:46;;;;;;;;;25.25;25.25;;;;;;;;12032945;29;8907;-55
2021/03/26 12:36:01;;;;;;;;;25.50;24.75;;;;;;;;12040863;29;8896;-56
2021/03/26 12:42:39;;;;;;;;;30.75;26.25;;;;;;;;12035595;29;9777;-54
2021/03/26 12:48:46;;;;;;;;;29.50;28.75;;;;;;;;12043302;29;8885;-54
2021/03/26 12:55:02;;;;;;;;;31.25;27.25;;;;;;;;12045555;29;8917;-54
2021/03/26 13:01:11;;;;;;;;;25.75;25.00;;;;;;;;12025920;29;9658;-56
2021/03/26 13:07:38;;;;;;;;;28.25;25.00;;;;;;;;12046121;29;8858;-53
2021/03/26 13:14:02;;;;;;;;;32.75;28.75;;;;;;;;12045531;29;8926;-54
2021/03/26 13:20:09;;;;;;;;;28.00;28.00;;;;;;;;12045269;29;8913;-53
2021/03/26 13:26:18;;;;;;;;;39.75;32.75;;;;;;;;12037104;29;8884;-55
2021/03/26 13:32:24;;;;;;;;;29.00;26.25;;;;;;;;12028552;29;8936;-56
2021/03/26 13:38:38;;;;;;;;;32.67;30.33;;;;;;;;12021124;29;8872;-52
2021/03/26 13:44:58;;;;;;;;;28.67;28.67;;;;;;;;12042281;29;9644;-55
2021/03/26 13:51:13;;;;;;;;;32.75;32.75;;;;;;;;12010971;29;8864;-54
2021/03/26 13:57:21;;;;;;;;;31.50;31.00;;;;;;;;12017377;29;8881;-54
2021/03/26 14:03:42;;;;;;;;;32.75;31.25;;;;;;;;12026862;29;8856;-54
2021/03/26 14:10:02;;;;;;;;;23.75;23.75;;;;;;;;12031586;29;8865;-52
2021/03/26 14:16:09;;;;;;;;;29.25;27.50;;;;;;;;12045107;29;8883;-53
2021/03/26 14:22:40;;;;;;;;;30.25;29.25;;;;;;;;12021502;29;8865;-51
2021/03/26 14:28:55;;;;;;;;;29.00;27.25;;;;;;;;12021085;29;8883;-52
2021/03/26 14:35:00;;;;;;;;;27.25;25.75;;;;;;;;12033004;29;8879;-55
2021/03/26 14:41:08;;;;;;;;;32.50;32.50;;;;;;;;12043195;29;8903;-56
2021/03/26 14:47:20;;;;;;;;;27.25;27.00;;;;;;;;12028439;29;8901;-52
2021/03/26 14:53:23;;;;;;;;;30.25;26.00;;;;;;;;12006700;29;8872;-51
2021/03/26 14:59:33;;;;;;;;;33.50;29.50;;;;;;;;12005578;29;8871;-51
2021/03/26 15:05:57;;;;;;;;;26.25;25.75;;;;;;;;12005909;29;9018;-51
2021/03/26 15:12:09;;;;;;;;;28.75;27.00;;;;;;;;12014521;29;8897;-53
2021/03/26 15:18:29;;;;;;;;;28.00;26.50;;;;;;;;12008896;29;8890;-53
2021/03/26 15:24:49;;;;;;;;;31.00;29.00;;;;;;;;12007045;29;9701;-53
2021/03/26 15:31:08;;;;;;;;;27.75;26.50;;;;;;;;12007683;29;8871;-51
2021/03/26 15:37:41;;;;;;;;;27.50;24.75;;;;;;;;12006396;29;9642;-49
2021/03/26 15:43:54;;;;;;;;;29.75;27.25;;;;;;;;12032986;29;8872;-53
2021/03/26 15:50:25;;;;;;;;;30.50;28.25;;;;;;;;12050748;29;8876;-52
2021/03/26 15:56:37;;;;;;;;;28.25;26.50;;;;;;;;12053140;29;8888;-52
2021/03/26 16:03:00;;;;;;;;;30.00;28.50;;;;;;;;12057259;29;9342;-53
2021/03/26 16:09:12;;;;;;;;;24.50;24.50;;;;;;;;12015599;29;8868;-54
2021/03/26 16:15:26;;;;;;;;;27.00;25.50;;;;;;;;12026286;29;8914;-52
2021/03/26 16:21:40;;;;;;;;;35.25;28.75;;;;;;;;12014709;29;8879;-54
2021/03/26 16:27:59;;;;;;;;;27.75;26.50;;;;;;;;12012795;29;8883;-51
2021/03/26 16:34:13;;;;;;;;;29.00;26.75;;;;;;;;12042365;29;8902;-51
2021/03/26 16:40:42;;;;;;;;;31.50;28.25;;;;;;;;12058353;29;8869;-55
2021/03/26 16:47:21;;;;;;;;;42.75;33.50;;;;;;;;12057689;29;8884;-52
2021/03/26 16:53:40;;;;;;;;;35.50;32.00;;;;;;;;12057501;29;9587;-53
2021/03/26 17:00:10;;;;;;;;;42.25;39.00;;;;;;;;12057218;29;8900;-54
2021/03/26 17:06:35;;;;;;;;;40.00;35.25;;;;;;;;12032995;29;8881;-49
2021/03/26 17:13:14;;;;;;;;;34.50;32.50;;;;;;;;12055766;29;9599;-52
2021/03/26 17:19:38;;;;;;;;;30.00;28.00;;;;;;;;12011395;29;8872;-50
2021/03/26 17:26:04;;;;;;;;;35.75;29.50;;;;;;;;12039007;29;9722;-50
2021/03/26 17:32:43;;;;;;;;;34.75;32.50;;;;;;;;12056297;29;8881;-51
2021/03/26 17:38:47;;;;;;;;;31.75;28.00;;;;;;;;12055797;29;8882;-51
2021/03/26 17:45:07;;;;;;;;;33.75;28.50;;;;;;;;12056388;29;9588;-51
2021/03/26 17:51:26;;;;;;;;;33.25;31.50;;;;;;;;12054682;29;8948;-53
2021/03/26 17:57:48;;;;;;;;;32.25;28.00;;;;;;;;12055566;29;8881;-52
2021/03/26 18:04:10;;;;;;;;;33.50;27.25;;;;;;;;12054247;29;8912;-49
2021/03/26 18:10:17;;;;;;;;;31.25;30.50;;;;;;;;12056400;29;8984;-52
2021/03/26 18:17:03;;;;;;;;;37.25;36.25;;;;;;;;12053341;29;9018;-51
2021/03/26 18:23:10;;;;;;;;;33.25;30.75;;;;;;;;12055449;29;8885;-49
2021/03/26 18:29:30;;;;;;;;;34.00;34.00;;;;;;;;12052954;29;8944;-53
2021/03/26 18:35:44;;;;;;;;;25.00;23.25;;;;;;;;12054743;29;8925;-51
2021/03/26 18:41:45;;;;;;;;;36.75;32.50;;;;;;;;12007307;29;8875;-48
2021/03/26 18:48:04;;;;;;;;;35.25;34.00;;;;;;;;12008813;29;8918;-50
2021/03/26 18:54:43;;;;;;;;;36.00;33.50;;;;;;;;12007459;29;8990;-51
2021/03/26 19:01:08;;;;;;;;;39.00;34.75;;;;;;;;12007962;29;9663;-53
2021/03/26 19:07:25;;;;;;;;;48.75;37.75;;;;;;;;12033085;29;8927;-53
2021/03/26 19:13:57;;;;;;;;;36.50;33.00;;;;;;;;12052842;29;8853;-49
2021/03/26 19:20:10;;;;;;;;;44.00;35.75;;;;;;;;12052217;29;8893;-50
2021/03/26 19:26:29;;;;;;;;;38.75;36.00;;;;;;;;12051696;29;8869;-48
2021/03/26 19:33:25;;;;;;;;;53.25;42.00;;;;;;;;12052371;29;8857;-49
2021/03/26 19:39:30;;;;;;;;;44.50;36.75;;;;;;;;12038333;29;8881;-52
2021/03/26 19:45:54;;;;;;;;;37.75;35.50;;;;;;;;12060308;29;8943;-49
2021/03/26 19:52:20;;;;;;;;;54.50;45.00;;;;;;;;12060496;29;8861;-52
2021/03/26 19:58:30;;;;;;;;;49.50;42.50;;;;;;;;12050532;29;8980;-49
2021/03/26 20:04:43;;;;;;;;;44.50;40.25;;;;;;;;12058848;29;8892;-55
2021/03/26 20:11:20;;;;;;;;;48.50;39.50;;;;;;;;12061225;29;8900;-51
2021/03/26 20:17:31;;;;;;;;;45.50;40.50;;;;;;;;12058862;29;9647;-49
2021/03/26 20:23:43;;;;;;;;;48.00;41.75;;;;;;;;12060260;29;8873;-50
2021/03/26 20:29:51;;;;;;;;;55.75;44.75;;;;;;;;12058322;29;8980;-50
2021/03/26 20:36:14;;;;;;;;;55.00;46.75;;;;;;;;12059462;29;8883;-49
2021/03/26 20:42:38;;;;;;;;;60.75;48.50;;;;;;;;12012538;29;8888;-50
2021/03/26 20:48:56;;;;;;;;;59.50;48.00;;;;;;;;12036524;29;8889;-54
2021/03/26 20:55:10;;;;;;;;;50.75;43.75;;;;;;;;12057845;29;8857;-53
2021/03/26 21:01:17;;;;;;;;;55.25;48.00;;;;;;;;12057798;29;8881;-51
2021/03/26 21:07:27;;;;;;;;;57.50;46.50;;;;;;;;12056238;29;8889;-48
2021/03/26 21:13:35;;;;;;;;;48.50;41.75;;;;;;;;12056989;29;8919;-52
2021/03/26 21:19:55;;;;;;;;;56.25;47.50;;;;;;;;12058497;29;8861;-50
2021/03/26 21:26:06;;;;;;;;;60.50;49.25;;;;;;;;12055156;29;9674;-51
2021/03/26 21:32:48;;;;;;;;;65.00;51.50;;;;;;;;12057899;29;8892;-49
2021/03/26 21:39:08;;;;;;;;;52.00;45.75;;;;;;;;12052848;29;8889;-54
2021/03/26 21:45:21;;;;;;;;;62.00;49.75;;;;;;;;12056233;29;8919;-50
2021/03/26 21:51:36;;;;;;;;;66.75;54.00;;;;;;;;12054706;29;8869;-52
2021/03/26 21:57:49;;;;;;;;;67.00;53.50;;;;;;;;12009883;29;9041;-47
2021/03/26 22:04:10;;;;;;;;;62.00;51.25;;;;;;;;12008998;29;8872;-49
2021/03/26 22:10:25;;;;;;;;;62.00;50.75;;;;;;;;12028449;29;8867;-47
2021/03/26 22:16:28;;;;;;;;;65.25;52.75;;;;;;;;12009923;29;8875;-48
2021/03/26 22:22:39;;;;;;;;;66.50;54.75;;;;;;;;12009063;29;8896;-49
2021/03/26 22:28:53;;;;;;;;;71.00;58.50;;;;;;;;12009758;29;8884;-52
2021/03/26 22:34:57;;;;;;;;;71.75;56.50;;;;;;;;12008237;29;8868;-52
2021/03/26 22:41:08;;;;;;;;;72.00;59.25;;;;;;;;12021936;29;8865;-49
2021/03/26 22:48:17;;;;;;;;;75.50;60.25;;;;;;;;12052481;29;8952;-51
2021/03/26 22:54:28;;;;;;;;;81.00;60.50;;;;;;;;11993682;29;8923;-49
2021/03/26 23:00:47;;;;;;;;;74.75;60.25;;;;;;;;12007662;29;8868;-48
2021/03/26 23:07:19;;;;;;;;;73.00;60.75;;;;;;;;12008145;29;8909;-49
2021/03/26 23:13:26;;;;;;;;;77.33;61.00;;;;;;;;12045352;29;8865;-48
2021/03/26 23:19:35;;;;;;;;;78.50;62.75;;;;;;;;12062667;29;8889;-47
2021/03/26 23:25:58;;;;;;;;;81.00;64.33;;;;;;;;12062563;29;8873;-49
2021/03/26 23:32:13;;;;;;;;;89.00;70.00;;;;;;;;12060218;29;8947;-49
2021/03/26 23:38:27;;;;;;;;;87.00;68.00;;;;;;;;12061627;29;8928;-48
2021/03/26 23:44:49;;;;;;;;;85.33;67.33;;;;;;;;12060429;29;8983;-49
2021/03/26 23:51:04;;;;;;;;;90.67;71.00;;;;;;;;12062635;29;8980;-49
2021/03/26 23:57:07;;;;;;;;;93.00;72.33;;;;;;;;12040486;29;8864;-52
